createdAt,value
2023-05-25T00:03:16.000Z,7.7
2023-05-25T00:06:49.000Z,8.9
2023-05-25T00:10:21.000Z,7.7
2023-05-25T00:13:54.000Z,10.1
2023-05-25T00:17:27.000Z,8.2
2023-05-25T00:20:59.000Z,7.5
2023-05-25T00:23:50.000Z,7.7
2023-05-25T00:27:23.000Z,7.5
2023-05-25T00:30:55.000Z,9.2
2023-05-25T00:34:28.000Z,9.3
2023-05-25T00:38:01.000Z,8.3
2023-05-25T00:41:34.000Z,10.7
2023-05-25T00:45:06.000Z,8.8
2023-05-25T00:48:39.000Z,7.8
2023-05-25T00:52:11.000Z,6.9
2023-05-25T00:55:44.000Z,8.5
2023-05-25T00:59:17.000Z,9.2
2023-05-25T01:02:08.000Z,7.8
2023-05-25T01:05:41.000Z,7.7
2023-05-25T01:09:14.000Z,8.6
2023-05-25T01:12:47.000Z,8.3
2023-05-25T01:16:19.000Z,9.7
2023-05-25T01:23:27.000Z,9.9
2023-05-25T01:26:59.000Z,7.1
2023-05-25T01:30:32.000Z,7.9
2023-05-25T01:34:05.000Z,6.7
2023-05-25T01:37:37.000Z,10.4
2023-05-25T01:40:28.000Z,8.8
2023-05-25T01:44:01.000Z,11
2023-05-25T01:47:34.000Z,7.3
2023-05-25T01:51:06.000Z,11.4
2023-05-25T01:54:39.000Z,8.8
2023-05-25T01:58:12.000Z,8.3
2023-05-25T02:01:44.000Z,9
2023-05-25T02:05:18.000Z,7.2
2023-05-25T02:08:51.000Z,8.5
2023-05-25T02:12:24.000Z,9.8
2023-05-25T02:15:56.000Z,10.5
2023-05-25T02:18:48.000Z,10.3
2023-05-25T02:22:21.000Z,9.4
2023-05-25T02:25:53.000Z,10.6
2023-05-25T02:29:26.000Z,8.5
2023-05-25T02:32:58.000Z,10
2023-05-25T02:36:31.000Z,9.4
2023-05-25T02:40:04.000Z,10.5
2023-05-25T02:43:37.000Z,9.8
2023-05-25T02:47:09.000Z,9.8
2023-05-25T02:50:42.000Z,11.4
2023-05-25T02:54:14.000Z,8.2
2023-05-25T02:57:06.000Z,10.3
2023-05-25T03:00:39.000Z,8.2
2023-05-25T03:04:11.000Z,11.4
2023-05-25T03:07:44.000Z,9
2023-05-25T03:11:17.000Z,8.8
2023-05-25T03:14:49.000Z,12.3
2023-05-25T03:18:22.000Z,12.3
2023-05-25T03:21:55.000Z,9.5
2023-05-25T03:25:27.000Z,10
2023-05-25T03:29:00.000Z,12.9
2023-05-25T03:32:32.000Z,12.3
2023-05-25T03:35:24.000Z,12.8
2023-05-25T03:38:56.000Z,13.8
2023-05-25T03:42:29.000Z,13.8
2023-05-25T03:46:02.000Z,11.6
2023-05-25T03:49:34.000Z,13.8
2023-05-25T03:53:07.000Z,9.6
2023-05-25T03:56:40.000Z,13.2
2023-05-25T04:00:12.000Z,10.9
2023-05-25T04:03:45.000Z,11.7
2023-05-25T04:07:18.000Z,14.3
2023-05-25T04:10:50.000Z,14.3
2023-05-25T04:13:42.000Z,15.1
2023-05-25T04:17:14.000Z,11.6
2023-05-25T04:20:47.000Z,13.9
2023-05-25T04:24:20.000Z,12
2023-05-25T04:27:52.000Z,13.5
2023-05-25T04:31:25.000Z,11
2023-05-25T04:34:58.000Z,14.8
2023-05-25T04:38:30.000Z,15.6
2023-05-25T04:42:03.000Z,13.5
2023-05-25T04:45:37.000Z,11.9
2023-05-25T04:49:10.000Z,16.6
2023-05-25T04:52:02.000Z,15.4
2023-05-25T04:55:35.000Z,14.5
2023-05-25T04:59:08.000Z,10.5
2023-05-25T05:02:41.000Z,14.9
2023-05-25T05:06:14.000Z,20.2
2023-05-25T05:09:47.000Z,19.1
2023-05-25T05:13:19.000Z,18
2023-05-25T05:16:52.000Z,17.2
2023-05-25T05:20:25.000Z,15.4
2023-05-25T05:23:58.000Z,15.4
2023-05-25T05:27:30.000Z,23.9
2023-05-25T05:30:21.000Z,19
2023-05-25T05:33:54.000Z,22.4
2023-05-25T05:37:27.000Z,15.6
2023-05-25T05:40:59.000Z,15.4
2023-05-25T05:44:32.000Z,24.3
2023-05-25T05:48:05.000Z,19.7
2023-05-25T05:51:38.000Z,19.8
2023-05-25T05:55:10.000Z,23.2
2023-05-25T05:58:43.000Z,22.8
2023-05-25T06:02:15.000Z,19.6
2023-05-25T06:05:48.000Z,19.6
2023-05-25T06:08:39.000Z,20.9
2023-05-25T06:12:12.000Z,25.1
2023-05-25T06:15:45.000Z,20.2
2023-05-25T06:19:18.000Z,22.5
2023-05-25T06:22:50.000Z,23
2023-05-25T06:26:23.000Z,26.6
2023-05-25T06:29:55.000Z,21.9
2023-05-25T06:33:28.000Z,27.1
2023-05-25T06:37:01.000Z,33.6
2023-05-25T06:40:34.000Z,28
2023-05-25T06:44:06.000Z,28
2023-05-25T06:46:58.000Z,28.2
2023-05-25T06:50:30.000Z,35.8
2023-05-25T06:54:03.000Z,26.1
2023-05-25T06:57:35.000Z,33.2
2023-05-25T07:01:08.000Z,25.8
2023-05-25T07:04:41.000Z,27.9
2023-05-25T07:08:13.000Z,33.3
2023-05-25T07:11:46.000Z,34.2
2023-05-25T07:15:19.000Z,31.6
2023-05-25T07:18:51.000Z,37.2
2023-05-25T07:22:26.000Z,28.3
2023-05-25T07:25:17.000Z,30.1
2023-05-25T07:28:49.000Z,35.7
2023-05-25T07:32:22.000Z,33.8
2023-05-25T07:35:55.000Z,30.4
2023-05-25T07:39:27.000Z,25.2
2023-05-25T07:43:00.000Z,24.7
2023-05-25T07:46:33.000Z,26.4
2023-05-25T07:50:06.000Z,22
2023-05-25T07:53:39.000Z,23.5
2023-05-25T07:57:12.000Z,19.5
2023-05-25T08:00:44.000Z,20.4
2023-05-25T08:03:36.000Z,20.9
2023-05-25T08:07:15.000Z,17.5
2023-05-25T08:10:48.000Z,20
2023-05-25T08:14:45.000Z,16.6
2023-05-25T08:18:17.000Z,18.9
2023-05-25T08:21:50.000Z,21.4
2023-05-25T08:25:23.000Z,14.7
2023-05-25T08:28:56.000Z,17.6
2023-05-25T08:32:28.000Z,16.5
2023-05-25T08:36:01.000Z,14.4
2023-05-25T08:39:34.000Z,19.7
2023-05-25T08:42:25.000Z,14.4
2023-05-25T08:45:57.000Z,15.9
2023-05-25T08:49:30.000Z,12.8
2023-05-25T08:53:03.000Z,13.8
2023-05-25T08:56:36.000Z,12.4
2023-05-25T09:00:08.000Z,19.6
2023-05-25T09:03:41.000Z,14.7
2023-05-25T09:07:14.000Z,15.4
2023-05-25T09:10:47.000Z,13.9
2023-05-25T09:14:19.000Z,13.2
2023-05-25T09:17:52.000Z,13.4
2023-05-25T09:20:43.000Z,15
2023-05-25T09:24:17.000Z,11.8
2023-05-25T09:27:50.000Z,14.9
2023-05-25T09:31:22.000Z,11.8
2023-05-25T09:34:55.000Z,11.6
2023-05-25T09:38:28.000Z,15.2
2023-05-25T09:42:01.000Z,14.5
2023-05-25T09:45:45.000Z,11
2023-05-25T09:49:18.000Z,12.2
2023-05-25T09:52:51.000Z,12.4
2023-05-25T09:56:23.000Z,12.2
2023-05-25T09:59:14.000Z,14.3
2023-05-25T10:02:47.000Z,10.9
2023-05-25T10:06:20.000Z,11.5
2023-05-25T10:09:52.000Z,10.9
2023-05-25T10:13:25.000Z,13.6
2023-05-25T10:16:57.000Z,11.6
2023-05-25T10:20:30.000Z,12.8
2023-05-25T10:24:03.000Z,9.7
2023-05-25T10:27:36.000Z,14.4
2023-05-25T10:31:08.000Z,10.5
2023-05-25T10:34:41.000Z,13.6
2023-05-25T10:37:33.000Z,10.8
2023-05-25T10:41:05.000Z,10.2
2023-05-25T10:44:38.000Z,10.3
2023-05-25T10:48:11.000Z,11
2023-05-25T10:51:43.000Z,8.1
2023-05-25T10:55:16.000Z,9.4
2023-05-25T10:58:49.000Z,9.7
2023-05-25T11:02:22.000Z,11.7
2023-05-25T11:05:55.000Z,11.3
2023-05-25T11:09:27.000Z,12.2
2023-05-25T11:13:00.000Z,12.2
2023-05-25T11:15:51.000Z,10.9
2023-05-25T11:19:24.000Z,10.2
2023-05-25T11:22:57.000Z,11.1
2023-05-25T11:26:29.000Z,11.2
2023-05-25T11:30:02.000Z,10.8
2023-05-25T11:33:42.000Z,9
2023-05-25T11:37:14.000Z,10.7
2023-05-25T11:41:02.000Z,8.8
2023-05-25T11:44:34.000Z,10
2023-05-25T11:48:07.000Z,12.4
2023-05-25T11:51:40.000Z,11.7
2023-05-25T11:54:31.000Z,11.9
2023-05-25T11:58:07.000Z,8.5
2023-05-25T12:01:39.000Z,12.7
2023-05-25T12:05:13.000Z,11.5
2023-05-25T12:08:46.000Z,10
2023-05-25T12:12:18.000Z,12.6
2023-05-25T12:15:51.000Z,10.7
2023-05-25T12:19:24.000Z,12.1
2023-05-25T12:22:56.000Z,10.5
2023-05-25T12:26:29.000Z,11.3
2023-05-25T12:30:02.000Z,10
2023-05-25T12:32:53.000Z,11.6
2023-05-25T12:36:29.000Z,10.6
2023-05-25T12:40:01.000Z,10.9
2023-05-25T12:43:34.000Z,9.4
2023-05-25T12:47:06.000Z,10.1
2023-05-25T12:50:39.000Z,11.3
2023-05-25T12:54:12.000Z,12.9
2023-05-25T12:57:45.000Z,12.1
2023-05-25T13:01:18.000Z,12.1
2023-05-25T13:04:51.000Z,12.1
2023-05-25T13:08:24.000Z,12.7
2023-05-25T13:11:15.000Z,11.5
2023-05-25T13:14:48.000Z,11.8
2023-05-25T13:18:21.000Z,11.6
2023-05-25T13:21:53.000Z,11.9
2023-05-25T13:25:26.000Z,12.6
2023-05-25T13:28:59.000Z,12.8
2023-05-25T13:32:31.000Z,11.9
2023-05-25T13:36:04.000Z,11.3
2023-05-25T13:39:37.000Z,9.9
2023-05-25T13:43:10.000Z,13.7
2023-05-25T13:46:42.000Z,11.8
2023-05-25T13:49:33.000Z,10
2023-05-25T13:53:06.000Z,12.3
2023-05-25T13:56:39.000Z,12.4
2023-05-25T14:00:11.000Z,12.3
2023-05-25T14:03:44.000Z,10.2
2023-05-25T14:07:17.000Z,11.5
2023-05-25T14:10:50.000Z,11.2
2023-05-25T14:14:23.000Z,11.4
2023-05-25T14:17:58.000Z,8.5
2023-05-25T14:21:31.000Z,12
2023-05-25T14:25:03.000Z,10.9
2023-05-25T14:27:55.000Z,8.8
2023-05-25T14:31:27.000Z,8.3
2023-05-25T14:35:00.000Z,9.1
2023-05-25T14:38:33.000Z,8.1
2023-05-25T14:42:06.000Z,8.9
2023-05-25T14:45:39.000Z,9.5
2023-05-25T14:49:12.000Z,7.5
2023-05-25T14:52:45.000Z,11.1
2023-05-25T14:56:17.000Z,9.2
2023-05-25T14:59:50.000Z,8.5
2023-05-25T15:03:24.000Z,9
2023-05-25T15:06:15.000Z,9.1
2023-05-25T15:09:48.000Z,8.5
2023-05-25T15:13:20.000Z,9.1
2023-05-25T15:16:53.000Z,10.8
2023-05-25T15:20:26.000Z,10.5
2023-05-25T15:23:59.000Z,11.9
2023-05-25T15:27:34.000Z,6.9
2023-05-25T15:31:07.000Z,8
2023-05-25T15:34:40.000Z,11.2
2023-05-25T15:38:13.000Z,8.6
2023-05-25T15:41:45.000Z,10.5
2023-05-25T15:44:37.000Z,8.3
2023-05-25T15:48:09.000Z,7
2023-05-25T15:51:42.000Z,7.6
2023-05-25T15:55:15.000Z,10.4
2023-05-25T15:58:47.000Z,7.6
2023-05-25T16:02:20.000Z,10.7
2023-05-25T16:05:53.000Z,8.3
2023-05-25T16:09:26.000Z,9.9
2023-05-25T16:12:58.000Z,9
2023-05-25T16:16:31.000Z,10.2
2023-05-25T16:20:04.000Z,8.9
2023-05-25T16:22:55.000Z,10.8
2023-05-25T16:26:28.000Z,8.1
2023-05-25T16:30:01.000Z,7.8
2023-05-25T16:33:34.000Z,9.3
2023-05-25T16:37:07.000Z,7.3
2023-05-25T16:40:39.000Z,8
2023-05-25T16:44:12.000Z,11.3
2023-05-25T16:47:45.000Z,8.1
2023-05-25T16:51:18.000Z,9.2
2023-05-25T16:54:51.000Z,12.1
2023-05-25T16:58:23.000Z,9
2023-05-25T17:01:14.000Z,9.3
2023-05-25T17:04:47.000Z,8.1
2023-05-25T17:08:20.000Z,9.3
2023-05-25T17:11:53.000Z,8.2
2023-05-25T17:15:26.000Z,7.6
2023-05-25T17:18:59.000Z,8.1
2023-05-25T17:22:31.000Z,7.9
2023-05-25T17:26:04.000Z,8.5
2023-05-25T17:29:37.000Z,7.8
2023-05-25T17:33:10.000Z,8
2023-05-25T17:36:42.000Z,9
2023-05-25T17:39:34.000Z,9.7
2023-05-25T17:43:06.000Z,8.6
2023-05-25T17:46:39.000Z,8.4
2023-05-25T17:50:12.000Z,7.8
2023-05-25T17:53:44.000Z,10.1
2023-05-25T17:57:17.000Z,8.5
2023-05-25T18:00:50.000Z,9.1
2023-05-25T18:04:23.000Z,9.9
2023-05-25T18:07:56.000Z,7.7
2023-05-25T18:11:28.000Z,9.8
2023-05-25T18:15:01.000Z,10.9
2023-05-25T18:17:52.000Z,7.1
2023-05-25T18:21:25.000Z,8.9
2023-05-25T18:24:57.000Z,11.3
2023-05-25T18:28:30.000Z,9.8
2023-05-25T18:32:03.000Z,8.8
2023-05-25T18:35:36.000Z,8.7
2023-05-25T18:39:09.000Z,9.2
2023-05-25T18:42:42.000Z,11.6
2023-05-25T18:46:14.000Z,9.2
2023-05-25T18:49:47.000Z,9.7
2023-05-25T18:53:20.000Z,10.7
2023-05-25T18:56:11.000Z,11.5
2023-05-25T18:59:44.000Z,8.9
2023-05-25T19:03:16.000Z,9
2023-05-25T19:06:49.000Z,10.8
2023-05-25T19:10:22.000Z,10.2
2023-05-25T19:13:54.000Z,8.7
2023-05-25T19:17:27.000Z,9.6
2023-05-25T19:21:00.000Z,8.6
2023-05-25T19:24:32.000Z,9.8
2023-05-25T19:28:09.000Z,8.1
2023-05-25T19:31:42.000Z,9.1
2023-05-25T19:34:33.000Z,9.3
2023-05-25T19:38:06.000Z,11.2
2023-05-25T19:41:38.000Z,12.8
2023-05-25T19:45:11.000Z,9.5
2023-05-25T19:48:44.000Z,12.5
2023-05-25T19:52:16.000Z,11.5
2023-05-25T19:55:49.000Z,11.4
2023-05-25T19:59:21.000Z,8.7
2023-05-25T20:02:54.000Z,11.7
2023-05-25T20:06:27.000Z,11.3
2023-05-25T20:09:59.000Z,13.1
2023-05-25T20:12:50.000Z,10.2
2023-05-25T20:16:23.000Z,12.3
2023-05-25T20:19:56.000Z,15.5
2023-05-25T20:23:29.000Z,11.4
2023-05-25T20:27:02.000Z,14.6
2023-05-25T20:30:34.000Z,14.9
2023-05-25T20:34:07.000Z,12.5
2023-05-25T20:37:40.000Z,14.1
2023-05-25T20:41:13.000Z,12.4
2023-05-25T20:44:45.000Z,11.7
2023-05-25T20:48:18.000Z,17.3
2023-05-25T20:51:09.000Z,11.5
2023-05-25T20:54:42.000Z,14.6
2023-05-25T20:58:14.000Z,13.3
2023-05-25T21:01:47.000Z,14.9
2023-05-25T21:05:20.000Z,17.3
2023-05-25T21:08:53.000Z,14.1
2023-05-25T21:12:25.000Z,13.6
2023-05-25T21:15:58.000Z,13.8
2023-05-25T21:19:31.000Z,14.5
2023-05-25T21:23:04.000Z,14.6
2023-05-25T21:26:36.000Z,17.5
2023-05-25T21:29:27.000Z,13.3
2023-05-25T21:33:00.000Z,12.5
2023-05-25T21:36:33.000Z,12.8
2023-05-25T21:40:05.000Z,15.5
2023-05-25T21:43:38.000Z,16.2
2023-05-25T21:47:11.000Z,15.3
2023-05-25T21:50:43.000Z,20.2
2023-05-25T21:54:16.000Z,19.2
2023-05-25T21:57:49.000Z,17
2023-05-25T22:01:21.000Z,13.4
2023-05-25T22:04:54.000Z,16.1
2023-05-25T22:07:46.000Z,17
2023-05-25T22:11:20.000Z,16.2
2023-05-25T22:14:53.000Z,17.2
2023-05-25T22:18:26.000Z,14.7
2023-05-25T22:22:06.000Z,21.9
2023-05-25T22:25:39.000Z,22.2
2023-05-25T22:29:12.000Z,19.9
2023-05-25T22:32:45.000Z,16.2
2023-05-25T22:36:17.000Z,13.4
2023-05-25T22:39:50.000Z,15.7
2023-05-25T22:43:23.000Z,15.8
2023-05-25T22:46:14.000Z,14
2023-05-25T22:49:47.000Z,17
2023-05-25T22:53:19.000Z,16.4
2023-05-25T22:56:52.000Z,22.6
2023-05-25T23:00:24.000Z,20.5
2023-05-25T23:03:57.000Z,17.8
2023-05-25T23:07:30.000Z,15.7
2023-05-25T23:11:03.000Z,16.6
2023-05-25T23:14:35.000Z,15.3
2023-05-25T23:18:08.000Z,14.9
2023-05-25T23:21:41.000Z,13.6
2023-05-25T23:24:32.000Z,15.1
2023-05-25T23:28:04.000Z,16.9
2023-05-25T23:31:37.000Z,13.9
2023-05-25T23:35:10.000Z,16.9
2023-05-25T23:38:42.000Z,14.6
2023-05-25T23:42:15.000Z,17.6
2023-05-25T23:45:47.000Z,14.8
2023-05-25T23:49:20.000Z,14.8
2023-05-25T23:52:53.000Z,16.9
2023-05-25T23:56:25.000Z,14.4
2023-05-25T23:59:58.000Z,16.4
